createdAt,value
2023-02-21T00:01:33.415Z,99429.56
2023-02-21T00:03:24.044Z,99419.06
2023-02-21T00:05:14.601Z,99417.22
2023-02-21T00:07:05.403Z,99419.69
2023-02-21T00:08:55.990Z,99416.13
2023-02-21T00:10:46.491Z,99407.34
2023-02-21T00:12:37.403Z,99410.81
2023-02-21T00:14:28.246Z,99401.97
2023-02-21T00:16:20.317Z,99410.50
2023-02-21T00:18:11.081Z,99414.69
2023-02-21T00:20:02.109Z,99404.91
2023-02-21T00:21:52.436Z,99398.69
2023-02-21T00:23:43.253Z,99405.56
2023-02-21T00:25:33.836Z,99408.97
2023-02-21T00:27:24.661Z,99392.28
2023-02-21T00:29:16.309Z,99395.72
2023-02-21T00:31:06.859Z,99388.66
2023-02-21T00:32:59.731Z,99379.94
2023-02-21T00:34:50.364Z,99383.47
2023-02-21T00:36:41.694Z,99383.00
2023-02-21T00:38:32.122Z,99378.88
2023-02-21T00:40:23.741Z,99369.41
2023-02-21T00:42:15.070Z,99371.31
2023-02-21T00:44:05.735Z,99375.06
2023-02-21T00:45:56.446Z,99355.09
2023-02-21T00:47:46.847Z,99371.59
2023-02-21T00:49:38.776Z,99361.31
2023-02-21T00:51:29.483Z,99358.84
2023-02-21T00:53:20.089Z,99357.03
2023-02-21T00:55:10.462Z,99350.13
2023-02-21T00:57:01.035Z,99344.97
2023-02-21T00:58:51.850Z,99351.06
2023-02-21T01:00:43.792Z,99350.09
2023-02-21T01:02:35.174Z,99347.47
2023-02-21T01:04:26.087Z,99340.41
2023-02-21T01:06:18.009Z,99340.47
2023-02-21T01:08:09.992Z,99337.75
2023-02-21T01:10:04.775Z,99337.66
2023-02-21T01:11:55.619Z,99335.84
2023-02-21T01:13:46.168Z,99327.22
2023-02-21T01:15:36.816Z,99333.28
2023-02-21T01:17:30.112Z,99328.13
2023-02-21T01:19:20.965Z,99310.56
2023-02-21T01:21:11.638Z,99306.13
2023-02-21T01:23:05.342Z,99300.03
2023-02-21T01:24:56.303Z,99305.34
2023-02-21T01:26:48.502Z,99302.69
2023-02-21T01:28:39.269Z,99301.13
2023-02-21T01:30:30.499Z,99300.38
2023-02-21T01:32:21.006Z,99289.00
2023-02-21T01:34:11.703Z,99284.69
2023-02-21T01:36:02.679Z,99291.78
2023-02-21T01:37:53.303Z,99293.47
2023-02-21T01:39:45.218Z,99291.72
2023-02-21T01:41:36.838Z,99282.09
2023-02-21T01:43:33.561Z,99274.38
2023-02-21T01:46:00.211Z,99272.66
2023-02-21T01:47:51.905Z,99277.75
2023-02-21T01:49:42.681Z,99265.38
2023-02-21T01:51:41.575Z,99264.44
2023-02-21T01:53:36.939Z,99268.81
2023-02-21T01:55:30.742Z,99275.81
2023-02-21T01:57:23.033Z,99261.78
2023-02-21T01:59:17.501Z,99263.44
2023-02-21T02:01:08.490Z,99265.06
2023-02-21T02:03:10.496Z,99257.31
2023-02-21T02:05:02.881Z,99249.44
2023-02-21T02:06:53.786Z,99259.78
2023-02-21T02:08:49.716Z,99255.44
2023-02-21T02:10:42.498Z,99252.88
2023-02-21T02:12:29.670Z,99240.81
2023-02-21T02:14:18.899Z,99240.91
2023-02-21T02:16:00.714Z,99242.69
2023-02-21T02:17:43.384Z,99237.50
2023-02-21T02:20:01.118Z,99241.03
2023-02-21T02:22:14.738Z,99239.41
2023-02-21T02:24:24.774Z,99248.13
2023-02-21T02:26:32.604Z,99232.34
2023-02-21T02:28:31.199Z,99238.41
2023-02-21T02:30:45.433Z,99234.78
2023-02-21T02:32:39.053Z,99233.88
2023-02-21T02:34:40.723Z,99232.09
2023-02-21T02:36:16.460Z,99229.59
2023-02-21T02:37:56.504Z,99220.03
2023-02-21T02:39:35.189Z,99226.97
2023-02-21T02:41:15.702Z,99230.38
2023-02-21T02:43:01.111Z,99226.06
2023-02-21T02:44:41.163Z,99232.19
2023-02-21T02:46:19.956Z,99227.75
2023-02-21T02:47:58.612Z,99231.25
2023-02-21T02:49:39.964Z,99221.78
2023-02-21T02:51:16.455Z,99230.56
2023-02-21T02:52:51.668Z,99227.88
2023-02-21T02:54:24.875Z,99226.22
2023-02-21T02:56:01.045Z,99237.53
2023-02-21T02:57:41.573Z,99239.25
2023-02-21T02:59:18.731Z,99239.31
2023-02-21T03:01:05.082Z,99225.41
2023-02-21T03:02:51.040Z,99237.63
2023-02-21T03:04:53.598Z,99237.53
2023-02-21T03:06:38.127Z,99232.28
2023-02-21T03:08:23.466Z,99239.34
2023-02-21T03:10:08.480Z,99237.66
2023-02-21T03:11:51.476Z,99235.06
2023-02-21T03:13:35.635Z,99242.94
2023-02-21T03:15:13.846Z,99233.38
2023-02-21T03:16:52.765Z,99246.47
2023-02-21T03:18:32.778Z,99243.00
2023-02-21T03:20:11.439Z,99244.84
2023-02-21T03:21:49.233Z,99245.09
2023-02-21T03:23:25.845Z,99255.91
2023-02-21T03:25:01.173Z,99258.53
2023-02-21T03:26:38.942Z,99250.66
2023-02-21T03:28:34.509Z,99253.25
2023-02-21T03:30:09.490Z,99250.59
2023-02-21T03:31:47.938Z,99261.06
2023-02-21T03:33:21.921Z,99266.34
2023-02-21T03:34:55.846Z,99260.25
2023-02-21T03:36:33.240Z,99253.34
2023-02-21T03:38:07.643Z,99262.06
2023-02-21T03:39:41.425Z,99264.66
2023-02-21T03:41:17.274Z,99254.19
2023-02-21T03:42:51.965Z,99261.16
2023-02-21T03:44:26.199Z,99257.72
2023-02-21T03:46:00.093Z,99262.09
2023-02-21T03:47:35.258Z,99269.03
2023-02-21T03:49:07.964Z,99257.78
2023-02-21T03:50:43.038Z,99266.50
2023-02-21T03:52:17.991Z,99275.16
2023-02-21T03:53:51.412Z,99269.91
2023-02-21T03:55:27.521Z,99262.13
2023-02-21T03:57:01.778Z,99263.00
2023-02-21T03:58:38.265Z,99257.72
2023-02-21T04:00:13.631Z,99259.41
2023-02-21T04:01:49.799Z,99262.06
2023-02-21T04:03:26.404Z,99255.09
2023-02-21T04:05:04.291Z,99249.00
2023-02-21T04:06:38.312Z,99256.84
2023-02-21T04:08:14.247Z,99262.13
2023-02-21T04:09:47.462Z,99257.78
2023-02-21T04:11:27.075Z,99250.88
2023-02-21T04:12:59.678Z,99248.38
2023-02-21T04:14:34.290Z,99256.19
2023-02-21T04:16:06.834Z,99250.88
2023-02-21T04:17:42.187Z,99243.91
2023-02-21T04:19:16.347Z,99250.97
2023-02-21T04:20:49.936Z,99241.31
2023-02-21T04:22:25.284Z,99245.66
2023-02-21T04:23:59.908Z,99249.16
2023-02-21T04:25:37.099Z,99242.19
2023-02-21T04:27:16.396Z,99251.78
2023-02-21T04:28:55.313Z,99245.75
2023-02-21T04:30:29.566Z,99244.06
2023-02-21T04:32:04.883Z,99245.00
2023-02-21T04:33:40.049Z,99244.13
2023-02-21T04:35:14.077Z,99237.19
2023-02-21T04:36:49.301Z,99235.47
2023-02-21T04:38:23.397Z,99227.59
2023-02-21T04:39:58.269Z,99243.25
2023-02-21T04:41:31.483Z,99236.31
2023-02-21T04:43:05.160Z,99233.78
2023-02-21T04:44:40.295Z,99234.69
2023-02-21T04:46:19.381Z,99233.78
2023-02-21T04:47:52.486Z,99231.97
2023-02-21T04:49:27.589Z,99239.78
2023-02-21T04:51:14.829Z,99238.13
2023-02-21T04:52:49.234Z,99238.13
2023-02-21T04:54:22.451Z,99230.28
2023-02-21T04:55:57.301Z,99237.19
2023-02-21T04:57:30.657Z,99238.91
2023-02-21T04:59:03.189Z,99231.06
2023-02-21T05:00:36.374Z,99230.19
2023-02-21T05:02:09.622Z,99233.66
2023-02-21T05:03:43.113Z,99231.03
2023-02-21T05:05:16.576Z,99234.53
2023-02-21T05:06:49.689Z,99229.34
2023-02-21T05:08:24.143Z,99221.59
2023-02-21T05:09:58.920Z,99219.84
2023-02-21T05:11:35.771Z,99232.03
2023-02-21T05:13:08.940Z,99225.91
2023-02-21T05:14:43.159Z,99232.00
2023-02-21T05:16:17.062Z,99219.81
2023-02-21T05:17:50.432Z,99219.81
2023-02-21T05:19:28.491Z,99226.75
2023-02-21T05:21:03.291Z,99223.22
2023-02-21T05:22:40.343Z,99219.75
2023-02-21T05:24:13.534Z,99216.28
2023-02-21T05:25:47.190Z,99212.88
2023-02-21T05:27:23.183Z,99219.78
2023-02-21T05:28:55.504Z,99216.28
2023-02-21T05:30:28.781Z,99223.28
2023-02-21T05:32:01.967Z,99220.66
2023-02-21T05:33:35.498Z,99223.25
2023-02-21T05:35:10.014Z,99226.69
2023-02-21T05:36:43.322Z,99214.44
2023-02-21T05:38:16.911Z,99222.28
2023-02-21T05:39:50.489Z,99218.75
2023-02-21T05:41:24.886Z,99208.31
2023-02-21T05:42:59.537Z,99216.09
2023-02-21T05:44:32.792Z,99228.25
2023-02-21T05:46:06.297Z,99229.13
2023-02-21T05:47:39.687Z,99214.38
2023-02-21T05:49:13.464Z,99215.38
2023-02-21T05:50:46.822Z,99211.84
2023-02-21T05:52:19.920Z,99218.81
2023-02-21T05:53:52.655Z,99223.97
2023-02-21T05:55:26.098Z,99229.16
2023-02-21T05:56:59.303Z,99229.97
2023-02-21T05:58:33.782Z,99226.47
2023-02-21T06:00:08.518Z,99221.22
2023-02-21T06:01:45.294Z,99226.38
2023-02-21T06:03:18.528Z,99221.16
2023-02-21T06:04:51.748Z,99220.34
2023-02-21T06:06:24.999Z,99216.84
2023-02-21T06:07:58.350Z,99216.72
2023-02-21T06:09:32.094Z,99222.69
2023-02-21T06:11:05.341Z,99206.88
2023-02-21T06:12:38.803Z,99194.66
2023-02-21T06:14:18.035Z,99208.44
2023-02-21T06:15:51.227Z,99206.69
2023-02-21T06:17:24.487Z,99195.16
2023-02-21T06:18:58.571Z,99204.69
2023-02-21T06:20:31.817Z,99211.47
2023-02-21T06:22:04.973Z,99213.84
2023-02-21T06:23:38.158Z,99207.41
2023-02-21T06:25:12.054Z,99205.22
2023-02-21T06:26:45.396Z,99216.81
2023-02-21T06:28:18.570Z,99207.31
2023-02-21T06:29:53.089Z,99209.75
2023-02-21T06:31:26.529Z,99206.78
2023-02-21T06:32:59.755Z,99204.47
2023-02-21T06:34:33.370Z,99205.66
2023-02-21T06:36:06.354Z,99204.84
2023-02-21T06:37:39.729Z,99196.72
2023-02-21T06:39:14.050Z,99205.19
2023-02-21T06:40:47.626Z,99206.28
2023-02-21T06:42:20.836Z,99205.06
2023-02-21T06:43:54.858Z,99199.75
2023-02-21T06:45:29.662Z,99193.94
2023-02-21T06:47:02.918Z,99189.19
2023-02-21T06:48:36.121Z,99200.38
2023-02-21T06:50:10.468Z,99201.84
2023-02-21T06:51:44.003Z,99191.59
2023-02-21T06:53:17.118Z,99199.94
2023-02-21T06:54:51.400Z,99190.47
2023-02-21T06:56:26.069Z,99191.34
2023-02-21T06:57:59.392Z,99198.78
2023-02-21T06:59:33.037Z,99192.22
2023-02-21T07:01:07.525Z,99205.25
2023-02-21T07:02:40.873Z,99198.69
2023-02-21T07:04:14.409Z,99198.38
2023-02-21T07:05:47.748Z,99200.31
2023-02-21T07:07:20.944Z,99194.38
2023-02-21T07:08:54.341Z,99195.38
2023-02-21T07:10:27.752Z,99186.06
2023-02-21T07:12:00.849Z,99190.19
2023-02-21T07:13:34.240Z,99187.53
2023-02-21T07:15:08.342Z,99185.31
2023-02-21T07:16:43.241Z,99188.25
2023-02-21T07:18:16.523Z,99173.41
2023-02-21T07:19:49.663Z,99176.81
2023-02-21T07:21:23.757Z,99172.25
2023-02-21T07:22:57.340Z,99171.41
2023-02-21T07:24:30.454Z,99169.88
2023-02-21T07:26:03.616Z,99175.25
2023-02-21T07:27:37.227Z,99177.94
2023-02-21T07:29:10.621Z,99173.59
2023-02-21T07:30:43.929Z,99168.22
2023-02-21T07:32:19.285Z,99164.91
2023-02-21T07:33:52.779Z,99170.81
2023-02-21T07:35:26.280Z,99166.56
2023-02-21T07:36:59.396Z,99159.44
2023-02-21T07:38:32.661Z,99156.00
2023-02-21T07:40:08.373Z,99155.91
2023-02-21T07:41:41.974Z,99146.72
2023-02-21T07:43:16.739Z,99149.97
2023-02-21T07:44:50.031Z,99154.91
2023-02-21T07:46:28.950Z,99144.88
2023-02-21T07:48:03.507Z,99144.66
2023-02-21T07:49:39.630Z,99147.56
2023-02-21T07:51:13.031Z,99142.22
2023-02-21T07:52:47.681Z,99129.13
2023-02-21T07:54:21.341Z,99124.06
2023-02-21T07:55:54.662Z,99125.22
2023-02-21T07:57:27.798Z,99129.06
2023-02-21T07:59:00.970Z,99121.19
2023-02-21T08:00:34.229Z,99120.59
2023-02-21T08:02:07.585Z,99123.41
2023-02-21T08:03:42.174Z,99125.84
2023-02-21T08:05:17.928Z,99121.97
2023-02-21T08:06:51.199Z,99128.38
2023-02-21T08:08:24.619Z,99114.47
2023-02-21T08:09:57.718Z,99106.47
2023-02-21T08:11:31.081Z,99109.50
2023-02-21T08:13:04.522Z,99111.97
2023-02-21T08:14:37.843Z,99121.06
2023-02-21T08:16:11.108Z,99117.91
2023-02-21T08:17:44.464Z,99119.94
2023-02-21T08:19:19.011Z,99118.91
2023-02-21T08:20:52.999Z,99116.72
2023-02-21T08:22:26.138Z,99113.56
2023-02-21T08:23:59.479Z,99118.03
2023-02-21T08:25:32.701Z,99107.97
2023-02-21T08:27:06.105Z,99117.19
2023-02-21T08:28:39.239Z,99111.09
2023-02-21T08:30:15.404Z,99118.28
2023-02-21T08:31:48.931Z,99109.69
2023-02-21T08:33:22.246Z,99124.47
2023-02-21T08:34:57.000Z,99116.28
2023-02-21T08:36:33.355Z,99111.28
2023-02-21T08:38:06.916Z,99109.94
2023-02-21T08:39:40.216Z,99112.91
2023-02-21T08:41:13.654Z,99100.50
2023-02-21T08:42:51.090Z,99113.59
2023-02-21T08:44:24.263Z,99110.66
2023-02-21T08:45:57.471Z,99117.50
2023-02-21T08:47:30.850Z,99103.34
2023-02-21T08:49:04.894Z,99122.16
2023-02-21T08:50:39.441Z,99116.56
2023-02-21T08:52:12.772Z,99100.94
2023-02-21T08:53:45.940Z,99112.16
2023-02-21T08:55:20.795Z,99095.06
2023-02-21T08:56:54.683Z,99108.00
2023-02-21T08:58:28.379Z,99094.78
2023-02-21T09:00:02.190Z,99093.06
2023-02-21T09:01:36.874Z,99090.28
2023-02-21T09:03:10.020Z,99101.38
2023-02-21T09:04:43.211Z,99084.81
2023-02-21T09:06:18.619Z,99088.22
2023-02-21T09:07:55.238Z,99086.19
2023-02-21T09:09:28.676Z,99074.88
2023-02-21T09:11:02.097Z,99079.94
2023-02-21T09:12:35.306Z,99075.06
2023-02-21T09:14:08.529Z,99084.69
2023-02-21T09:15:41.686Z,99085.66
2023-02-21T09:17:15.704Z,99086.44
2023-02-21T09:18:56.045Z,99077.19
2023-02-21T09:20:29.295Z,99074.03
2023-02-21T09:22:04.401Z,99071.06
2023-02-21T09:23:37.747Z,99082.34
2023-02-21T09:25:13.071Z,99078.88
2023-02-21T09:26:47.454Z,99086.00
2023-02-21T09:28:21.706Z,99083.06
2023-02-21T09:29:56.548Z,99089.31
2023-02-21T09:31:29.783Z,99085.03
2023-02-21T09:33:03.030Z,99085.38
2023-02-21T09:34:36.150Z,99081.13
2023-02-21T09:36:10.457Z,99076.25
2023-02-21T09:37:46.612Z,99088.66
2023-02-21T09:39:20.394Z,99039.34
2023-02-21T09:41:00.279Z,99090.31
2023-02-21T09:42:33.692Z,99079.47
2023-02-21T09:44:08.451Z,99071.28
2023-02-21T09:45:42.631Z,99064.31
2023-02-21T09:47:22.353Z,99079.19
2023-02-21T09:48:56.103Z,99083.44
2023-02-21T09:50:34.348Z,99063.19
2023-02-21T09:52:18.751Z,99079.28
2023-02-21T09:53:56.999Z,99075.63
2023-02-21T09:55:34.727Z,99074.53
2023-02-21T09:57:13.744Z,99078.75
2023-02-21T09:58:47.208Z,99065.97
2023-02-21T10:00:23.370Z,99063.91
2023-02-21T10:02:16.330Z,99064.19
2023-02-21T10:03:58.927Z,99065.41
2023-02-21T10:05:43.200Z,99055.22
2023-02-21T10:07:23.702Z,99052.28
2023-02-21T10:09:04.564Z,99043.22
2023-02-21T10:10:44.772Z,99051.03
2023-02-21T10:12:25.580Z,99045.91
2023-02-21T10:14:07.767Z,99042.97
2023-02-21T10:15:46.746Z,99043.91
2023-02-21T10:17:26.534Z,99035.41
2023-02-21T10:19:08.999Z,99036.88
2023-02-21T10:20:48.502Z,99036.41
2023-02-21T10:22:26.689Z,99047.13
2023-02-21T10:24:04.943Z,99030.78
2023-02-21T10:25:43.891Z,99032.50
2023-02-21T10:27:21.110Z,99027.72
2023-02-21T10:28:57.018Z,99032.00
2023-02-21T10:30:35.670Z,99019.31
2023-02-21T10:32:10.166Z,99012.97
2023-02-21T10:33:43.306Z,99017.63
2023-02-21T10:35:19.126Z,99009.19
2023-02-21T10:36:52.686Z,99009.09
2023-02-21T10:38:27.613Z,99004.94
2023-02-21T10:40:09.174Z,98995.94
2023-02-21T10:41:43.823Z,98999.34
2023-02-21T10:43:20.672Z,98978.31
2023-02-21T10:44:55.251Z,98994.19
2023-02-21T10:46:32.410Z,98984.56
2023-02-21T10:48:07.162Z,98973.22
2023-02-21T10:49:48.022Z,98983.97
2023-02-21T10:51:32.053Z,98969.81
2023-02-21T10:53:05.312Z,98957.13
2023-02-21T10:54:39.092Z,98969.56
2023-02-21T10:56:31.575Z,98957.84
2023-02-21T10:58:10.513Z,98960.03
2023-02-21T10:59:44.777Z,98952.69
2023-02-21T11:01:21.910Z,98950.50
2023-02-21T11:02:58.008Z,98951.72
2023-02-21T11:04:35.034Z,98941.22
2023-02-21T11:06:09.127Z,98934.72
2023-02-21T11:07:45.732Z,98933.16
2023-02-21T11:09:32.340Z,98933.88
2023-02-21T11:11:06.121Z,98923.50
2023-02-21T11:12:40.936Z,98928.97
2023-02-21T11:14:23.792Z,98920.88
2023-02-21T11:16:12.067Z,98912.28
2023-02-21T11:17:47.122Z,98906.53
2023-02-21T11:19:20.257Z,98907.09
2023-02-21T11:20:54.958Z,98889.59
2023-02-21T11:22:38.642Z,98903.91
2023-02-21T11:24:13.487Z,98906.53
2023-02-21T11:25:47.469Z,98893.00
2023-02-21T11:27:21.486Z,98891.94
2023-02-21T11:28:56.448Z,98894.50
2023-02-21T11:30:31.362Z,98896.56
2023-02-21T11:32:13.345Z,98892.88
2023-02-21T11:33:53.667Z,98893.44
2023-02-21T11:35:30.235Z,98899.44
2023-02-21T11:37:05.806Z,98886.22
2023-02-21T11:38:41.542Z,98890.19
2023-02-21T11:40:24.443Z,98882.75
2023-02-21T11:42:00.523Z,98889.50
2023-02-21T11:43:34.783Z,98890.75
2023-02-21T11:45:30.437Z,98884.13
2023-02-21T11:47:14.388Z,98870.44
2023-02-21T11:48:59.758Z,98875.81
2023-02-21T11:50:40.377Z,98868.41
2023-02-21T11:52:20.738Z,98866.38
2023-02-21T11:53:54.536Z,98874.00
2023-02-21T11:55:27.995Z,98865.72
2023-02-21T11:57:07.921Z,98867.38
2023-02-21T11:58:48.499Z,98864.31
2023-02-21T12:00:32.576Z,98865.81
2023-02-21T12:02:41.560Z,98848.56
2023-02-21T12:04:29.541Z,98861.88
2023-02-21T12:06:08.231Z,98849.44
2023-02-21T12:07:48.041Z,98863.13
2023-02-21T12:09:29.524Z,98856.50
2023-02-21T12:11:17.721Z,98857.94
2023-02-21T12:12:59.427Z,98861.34
2023-02-21T12:14:56.478Z,98864.19
2023-02-21T12:16:43.279Z,98871.28
2023-02-21T12:18:37.436Z,98845.94
2023-02-21T12:20:26.476Z,98855.25
2023-02-21T12:22:05.292Z,98852.53
2023-02-21T12:23:52.837Z,98849.25
2023-02-21T12:25:34.108Z,98850.38
2023-02-21T12:27:16.702Z,98859.41
2023-02-21T12:29:03.023Z,98846.09
2023-02-21T12:30:53.128Z,98853.69
2023-02-21T12:32:41.398Z,98843.06
2023-02-21T12:34:30.148Z,98838.94
2023-02-21T12:36:27.536Z,98839.91
2023-02-21T12:38:08.534Z,98846.41
2023-02-21T12:40:04.936Z,98829.16
2023-02-21T12:41:55.698Z,98833.31
2023-02-21T12:43:52.354Z,98835.19
2023-02-21T12:45:42.842Z,98833.22
2023-02-21T12:47:21.208Z,98831.41
2023-02-21T12:49:04.060Z,98826.50
2023-02-21T12:50:41.508Z,98827.63
2023-02-21T12:52:18.090Z,98840.84
2023-02-21T12:53:55.004Z,98837.09
2023-02-21T12:55:34.458Z,98814.44
2023-02-21T12:57:13.693Z,98820.78
2023-02-21T12:58:52.523Z,98828.16
2023-02-21T13:00:28.017Z,98818.25
2023-02-21T13:02:11.779Z,98817.84
2023-02-21T13:03:58.703Z,98820.44
2023-02-21T13:05:40.891Z,98824.69
2023-02-21T13:07:25.742Z,98808.97
2023-02-21T13:09:10.656Z,98808.09
2023-02-21T13:10:53.646Z,98807.41
2023-02-21T13:12:32.725Z,98799.72
2023-02-21T13:14:11.789Z,98807.69
2023-02-21T13:15:47.783Z,98811.22
2023-02-21T13:17:21.095Z,98808.25
2023-02-21T13:19:04.992Z,98817.41
2023-02-21T13:20:41.434Z,98814.16
2023-02-21T13:23:09.513Z,98819.97
2023-02-21T13:25:14.821Z,98807.13
2023-02-21T13:27:01.072Z,98823.97
2023-02-21T13:28:36.650Z,98811.78
2023-02-21T13:30:16.194Z,98812.94
2023-02-21T13:31:56.802Z,98805.53
2023-02-21T13:33:38.507Z,98808.97
2023-02-21T13:35:22.759Z,98802.44
2023-02-21T13:37:03.115Z,98824.50
2023-02-21T13:38:36.419Z,98815.72
2023-02-21T13:40:24.165Z,98799.72
2023-02-21T13:42:07.065Z,98807.94
2023-02-21T13:43:48.458Z,98812.00
2023-02-21T13:45:24.802Z,98800.66
2023-02-21T13:47:19.810Z,98806.31
2023-02-21T13:49:26.044Z,98811.66
2023-02-21T13:51:01.680Z,98813.75
2023-02-21T13:52:51.486Z,98804.50
2023-02-21T13:54:26.423Z,98798.84
2023-02-21T13:56:41.202Z,98811.31
2023-02-21T13:58:45.860Z,98801.66
2023-02-21T14:00:50.744Z,98802.22
2023-02-21T14:02:31.201Z,98808.63
2023-02-21T14:04:45.011Z,98799.81
2023-02-21T14:06:35.959Z,98805.41
2023-02-21T14:08:11.709Z,98796.00
2023-02-21T14:09:48.030Z,98800.75
2023-02-21T14:11:23.871Z,98783.19
2023-02-21T14:13:00.118Z,98793.94
2023-02-21T14:14:39.594Z,98782.75
2023-02-21T14:16:20.823Z,98782.44
2023-02-21T14:17:54.471Z,98784.25
2023-02-21T14:19:35.862Z,98783.25
2023-02-21T14:21:15.444Z,98776.94
2023-02-21T14:22:54.112Z,98776.13
2023-02-21T14:24:29.993Z,98780.69
2023-02-21T14:26:05.352Z,98770.88
2023-02-21T14:27:39.888Z,98777.44
2023-02-21T14:29:30.118Z,98766.69
2023-02-21T14:31:04.314Z,98778.88
2023-02-21T14:32:42.423Z,98775.34
2023-02-21T14:34:18.907Z,98778.03
2023-02-21T14:36:00.736Z,98771.78
2023-02-21T14:37:38.365Z,98774.06
2023-02-21T14:39:13.796Z,98781.69
2023-02-21T14:41:03.868Z,98776.00
2023-02-21T17:16:45.028Z,98895.13
2023-02-21T17:18:18.996Z,98904.28
2023-02-21T17:19:52.562Z,98905.34
2023-02-21T17:21:25.750Z,98903.97
2023-02-21T17:22:59.998Z,98896.13
2023-02-21T17:24:33.779Z,98894.88
2023-02-21T17:26:07.289Z,98906.84
2023-02-21T17:27:40.504Z,98897.19
2023-02-21T17:29:13.900Z,98902.78
2023-02-21T17:30:48.199Z,98897.84
2023-02-21T17:32:23.749Z,98882.22
2023-02-21T17:33:57.181Z,98895.47
2023-02-21T17:35:30.827Z,98887.56
2023-02-21T17:37:05.140Z,98879.66
2023-02-21T17:38:38.374Z,98877.94
2023-02-21T17:40:12.888Z,98871.13
2023-02-21T17:41:50.120Z,98864.06
2023-02-21T17:43:23.352Z,98865.03
2023-02-21T17:44:59.048Z,98866.75
2023-02-21T17:46:33.316Z,98864.50
2023-02-21T17:48:08.046Z,98866.84
2023-02-21T17:49:41.509Z,98872.00
2023-02-21T17:51:23.701Z,98874.56
2023-02-21T17:52:57.101Z,98882.69
2023-02-21T17:54:30.696Z,98897.75
2023-02-21T17:56:04.280Z,98887.91
2023-02-21T17:57:40.742Z,98882.88
2023-02-21T17:59:14.549Z,98881.38
2023-02-21T18:00:47.944Z,98887.03
2023-02-21T18:02:21.224Z,98882.75
2023-02-21T18:03:56.393Z,98875.91
2023-02-21T18:05:30.432Z,98871.75
2023-02-21T18:07:04.205Z,98875.59
2023-02-21T18:08:37.800Z,98858.06
2023-02-21T18:10:11.088Z,98855.91
2023-02-21T18:11:49.870Z,98866.16
2023-02-21T18:13:24.551Z,98859.53
2023-02-21T18:14:57.678Z,98870.41
2023-02-21T18:16:31.304Z,98864.28
2023-02-21T18:18:07.127Z,98875.09
2023-02-21T18:19:42.519Z,98885.44
2023-02-21T18:21:16.692Z,98887.47
2023-02-21T18:22:50.193Z,98896.03
2023-02-21T18:24:23.490Z,98905.09
2023-02-21T18:25:56.939Z,98899.94
2023-02-21T18:27:30.098Z,98907.38
2023-02-21T18:29:03.361Z,98896.13
2023-02-21T18:30:36.595Z,98912.38
2023-02-21T18:32:09.980Z,98921.53
2023-02-21T18:33:43.254Z,98918.28
2023-02-21T18:35:19.109Z,98919.66
2023-02-21T18:36:54.199Z,98922.50
2023-02-21T18:38:28.974Z,98917.59
2023-02-21T18:40:02.479Z,98929.97
2023-02-21T18:41:36.070Z,98916.72
2023-02-21T18:43:09.209Z,98916.47
2023-02-21T18:44:42.995Z,98927.31
2023-02-21T18:46:18.440Z,98942.41
2023-02-21T18:47:51.812Z,98937.63
2023-02-21T18:49:25.402Z,98941.44
2023-02-21T18:51:00.176Z,98932.69
2023-02-21T18:52:33.401Z,98934.69
2023-02-21T18:54:06.726Z,98944.09
2023-02-21T18:55:40.376Z,98939.16
2023-02-21T18:57:14.122Z,98940.31
2023-02-21T18:58:47.857Z,98942.59
2023-02-21T19:00:21.650Z,98933.97
2023-02-21T19:01:56.845Z,98938.06
2023-02-21T19:03:30.236Z,98935.88
2023-02-21T19:05:03.684Z,98925.41
2023-02-21T19:06:38.294Z,98927.41
2023-02-21T19:08:11.614Z,98929.06
2023-02-21T19:09:51.050Z,98923.94
2023-02-21T19:11:24.267Z,98939.47
2023-02-21T19:12:59.334Z,98919.00
2023-02-21T19:14:32.668Z,98934.41
2023-02-21T19:16:07.547Z,98928.88
2023-02-21T19:17:40.775Z,98934.97
2023-02-21T19:19:14.110Z,98951.06
2023-02-21T19:20:49.375Z,98952.97
2023-02-21T19:22:24.181Z,98957.44
2023-02-21T19:23:57.389Z,98962.94
2023-02-21T19:25:31.123Z,98972.09
2023-02-21T19:27:04.894Z,98979.34
2023-02-21T19:28:40.028Z,98972.31
2023-02-21T19:30:14.604Z,98990.84
2023-02-21T19:31:48.002Z,98985.34
2023-02-21T19:33:23.056Z,98987.81
2023-02-21T19:34:56.220Z,98991.53
2023-02-21T19:36:29.738Z,98988.09
2023-02-21T19:38:06.542Z,98988.47
2023-02-21T19:39:39.856Z,98992.47
2023-02-21T19:41:13.669Z,98999.88
2023-02-21T19:42:48.546Z,99000.41
2023-02-21T19:44:21.953Z,99006.31
2023-02-21T19:45:55.264Z,98989.31
2023-02-21T19:47:29.692Z,98984.91
2023-02-21T19:49:03.246Z,98994.75
2023-02-21T19:50:36.725Z,98987.03
2023-02-21T19:52:10.116Z,98982.13
2023-02-21T19:53:45.121Z,98981.72
2023-02-21T19:55:18.497Z,98983.78
2023-02-21T19:56:52.222Z,98980.72
2023-02-21T19:58:25.368Z,98978.63
2023-02-21T19:59:58.546Z,98978.31
2023-02-21T20:01:32.645Z,98979.13
2023-02-21T20:03:05.903Z,98972.72
2023-02-21T20:04:39.007Z,98985.91
2023-02-21T20:06:12.889Z,98996.13
2023-02-21T20:07:46.175Z,98988.47
2023-02-21T20:09:20.708Z,98997.13
2023-02-21T20:10:53.774Z,98998.34
2023-02-21T20:12:27.489Z,99002.31
2023-02-21T20:14:01.044Z,99004.56
2023-02-21T20:15:35.658Z,98999.63
2023-02-21T20:17:08.745Z,99001.69
2023-02-21T20:18:42.566Z,99001.88
2023-02-21T20:20:16.076Z,99003.00
2023-02-21T20:21:51.888Z,99004.19
2023-02-21T20:23:25.021Z,99003.63
2023-02-21T20:25:00.104Z,99007.59
2023-02-21T20:26:33.258Z,99002.50
2023-02-21T20:28:07.369Z,99005.94
2023-02-21T20:29:40.540Z,99003.88
2023-02-21T20:31:15.640Z,99009.03
2023-02-21T20:32:49.072Z,98999.94
2023-02-21T20:34:24.407Z,98995.25
2023-02-21T20:35:57.656Z,98997.84
2023-02-21T20:37:32.731Z,98986.75
2023-02-21T20:39:07.387Z,98999.34
2023-02-21T20:40:42.076Z,98989.03
2023-02-21T20:42:15.357Z,98996.19
2023-02-21T20:43:48.879Z,98988.22
2023-02-21T20:45:23.685Z,98989.41
2023-02-21T20:46:58.037Z,98985.88
2023-02-21T20:48:32.358Z,98995.75
2023-02-21T20:50:07.486Z,99000.41
2023-02-21T20:51:41.462Z,98989.19
2023-02-21T20:53:17.702Z,98999.81
2023-02-21T20:54:51.558Z,98996.94
2023-02-21T20:56:31.430Z,99002.13
2023-02-21T20:58:04.858Z,99001.50
2023-02-21T20:59:41.094Z,99008.19
2023-02-21T21:01:15.542Z,99003.53
2023-02-21T21:02:49.394Z,99002.66
2023-02-21T21:04:26.515Z,99018.47
2023-02-21T21:05:59.776Z,99025.69
2023-02-21T21:07:32.892Z,99006.28
2023-02-21T21:09:06.140Z,99010.06
2023-02-21T21:10:39.919Z,99010.22
2023-02-21T21:12:17.344Z,99017.16
2023-02-21T21:13:50.503Z,99020.13
2023-02-21T21:15:23.791Z,99016.88
2023-02-21T21:16:57.473Z,99011.03
2023-02-21T21:18:30.625Z,99013.31
2023-02-21T21:20:05.902Z,99018.53
2023-02-21T21:21:39.603Z,99015.13
2023-02-21T21:23:12.911Z,99014.81
2023-02-21T21:24:46.234Z,99021.16
2023-02-21T21:26:19.424Z,99016.88
2023-02-21T21:27:54.151Z,99021.25
2023-02-21T21:29:28.209Z,99015.00
2023-02-21T21:31:01.486Z,99013.28
2023-02-21T21:32:35.595Z,99014.16
2023-02-21T21:34:09.441Z,99007.19
2023-02-21T21:35:42.572Z,99006.81
2023-02-21T21:37:17.043Z,99008.75
2023-02-21T21:38:49.178Z,99015.44
2023-02-21T21:40:24.405Z,99016.91
2023-02-21T21:42:05.296Z,99019.06
2023-02-21T21:43:40.120Z,99016.69
2023-02-21T21:45:19.611Z,99022.22
2023-02-21T21:46:54.051Z,99030.59
2023-02-21T21:48:27.141Z,99032.59
2023-02-21T21:50:02.528Z,99024.47
2023-02-21T21:51:36.125Z,99034.06
2023-02-21T21:53:10.272Z,99032.09